sensor_id;sensor_type;location;lat;lon;timestamp;temperature;humidity
21676;DHT22;10999;51.332;9.458;2022-07-10T00:02:19;13.70;60.20
21676;DHT22;10999;51.332;9.458;2022-07-10T00:04:46;13.70;60.50
21676;DHT22;10999;51.332;9.458;2022-07-10T00:07:13;13.80;60.40
21676;DHT22;10999;51.332;9.458;2022-07-10T00:09:39;13.70;61.20
21676;DHT22;10999;51.332;9.458;2022-07-10T00:12:06;13.70;60.90
21676;DHT22;10999;51.332;9.458;2022-07-10T00:14:33;13.70;61.50
21676;DHT22;10999;51.332;9.458;2022-07-10T00:16:59;13.60;61.20
21676;DHT22;10999;51.332;9.458;2022-07-10T00:19:26;13.60;61.20
21676;DHT22;10999;51.332;9.458;2022-07-10T00:21:53;13.60;61.20
21676;DHT22;10999;51.332;9.458;2022-07-10T00:24:20;13.50;61.40
21676;DHT22;10999;51.332;9.458;2022-07-10T00:26:46;13.60;61.00
21676;DHT22;10999;51.332;9.458;2022-07-10T00:29:14;13.60;62.10
21676;DHT22;10999;51.332;9.458;2022-07-10T00:31:41;13.60;61.40
21676;DHT22;10999;51.332;9.458;2022-07-10T00:34:07;13.50;62.60
21676;DHT22;10999;51.332;9.458;2022-07-10T00:36:34;13.60;62.60
21676;DHT22;10999;51.332;9.458;2022-07-10T00:39:01;13.50;63.60
21676;DHT22;10999;51.332;9.458;2022-07-10T00:41:28;13.60;63.20
21676;DHT22;10999;51.332;9.458;2022-07-10T00:43:55;13.60;63.20
21676;DHT22;10999;51.332;9.458;2022-07-10T00:46:22;13.60;62.40
21676;DHT22;10999;51.332;9.458;2022-07-10T00:48:49;13.70;62.90
21676;DHT22;10999;51.332;9.458;2022-07-10T00:51:16;13.70;62.60
21676;DHT22;10999;51.332;9.458;2022-07-10T00:53:44;13.70;62.30
21676;DHT22;10999;51.332;9.458;2022-07-10T00:56:11;13.60;62.20
21676;DHT22;10999;51.332;9.458;2022-07-10T00:58:40;13.60;62.50
21676;DHT22;10999;51.332;9.458;2022-07-10T01:01:08;13.70;62.50
21676;DHT22;10999;51.332;9.458;2022-07-10T01:03:34;13.60;63.20
21676;DHT22;10999;51.332;9.458;2022-07-10T01:06:01;13.60;62.90
21676;DHT22;10999;51.332;9.458;2022-07-10T01:08:28;13.70;63.60
21676;DHT22;10999;51.332;9.458;2022-07-10T01:10:55;13.70;63.70
21676;DHT22;10999;51.332;9.458;2022-07-10T01:13:21;13.60;63.60
21676;DHT22;10999;51.332;9.458;2022-07-10T01:15:48;13.60;62.70
21676;DHT22;10999;51.332;9.458;2022-07-10T01:18:15;13.50;61.90
21676;DHT22;10999;51.332;9.458;2022-07-10T01:20:42;13.50;63.20
21676;DHT22;10999;51.332;9.458;2022-07-10T01:23:08;13.50;61.40
21676;DHT22;10999;51.332;9.458;2022-07-10T01:25:35;13.50;60.90
21676;DHT22;10999;51.332;9.458;2022-07-10T01:28:02;13.60;60.20
21676;DHT22;10999;51.332;9.458;2022-07-10T01:30:28;13.50;60.50
21676;DHT22;10999;51.332;9.458;2022-07-10T01:32:55;13.50;60.10
21676;DHT22;10999;51.332;9.458;2022-07-10T01:35:22;13.40;60.60
21676;DHT22;10999;51.332;9.458;2022-07-10T01:37:49;13.40;61.60
21676;DHT22;10999;51.332;9.458;2022-07-10T01:40:15;13.40;61.40
21676;DHT22;10999;51.332;9.458;2022-07-10T01:42:42;13.40;61.50
21676;DHT22;10999;51.332;9.458;2022-07-10T01:45:09;13.30;62.20
21676;DHT22;10999;51.332;9.458;2022-07-10T01:47:36;13.30;63.00
21676;DHT22;10999;51.332;9.458;2022-07-10T01:50:03;13.30;64.00
21676;DHT22;10999;51.332;9.458;2022-07-10T01:52:30;13.30;64.30
21676;DHT22;10999;51.332;9.458;2022-07-10T01:54:57;13.30;65.10
21676;DHT22;10999;51.332;9.458;2022-07-10T01:57:24;13.40;64.70
21676;DHT22;10999;51.332;9.458;2022-07-10T01:59:50;13.50;65.00
21676;DHT22;10999;51.332;9.458;2022-07-10T02:02:17;13.50;65.00
21676;DHT22;10999;51.332;9.458;2022-07-10T02:04:44;13.40;64.80
21676;DHT22;10999;51.332;9.458;2022-07-10T02:07:11;13.50;64.80
21676;DHT22;10999;51.332;9.458;2022-07-10T02:09:38;13.40;65.50
21676;DHT22;10999;51.332;9.458;2022-07-10T02:12:05;13.40;66.00
21676;DHT22;10999;51.332;9.458;2022-07-10T02:14:32;13.40;66.50
21676;DHT22;10999;51.332;9.458;2022-07-10T02:16:59;13.40;66.10
21676;DHT22;10999;51.332;9.458;2022-07-10T02:19:26;13.40;66.40
21676;DHT22;10999;51.332;9.458;2022-07-10T02:21:52;13.50;67.00
21676;DHT22;10999;51.332;9.458;2022-07-10T02:24:19;13.50;67.50
21676;DHT22;10999;51.332;9.458;2022-07-10T02:26:46;13.50;67.90
21676;DHT22;10999;51.332;9.458;2022-07-10T02:29:12;13.60;68.80
21676;DHT22;10999;51.332;9.458;2022-07-10T02:31:39;13.50;69.10
21676;DHT22;10999;51.332;9.458;2022-07-10T02:34:09;13.50;68.70
21676;DHT22;10999;51.332;9.458;2022-07-10T02:36:36;13.50;68.90
21676;DHT22;10999;51.332;9.458;2022-07-10T02:39:05;13.50;68.60
21676;DHT22;10999;51.332;9.458;2022-07-10T02:41:32;13.40;68.90
21676;DHT22;10999;51.332;9.458;2022-07-10T02:43:59;13.40;69.00
21676;DHT22;10999;51.332;9.458;2022-07-10T02:46:26;13.30;68.10
21676;DHT22;10999;51.332;9.458;2022-07-10T02:48:53;13.30;68.60
21676;DHT22;10999;51.332;9.458;2022-07-10T02:51:19;13.20;69.40
21676;DHT22;10999;51.332;9.458;2022-07-10T02:53:46;13.10;69.90
21676;DHT22;10999;51.332;9.458;2022-07-10T02:56:13;13.10;69.60
21676;DHT22;10999;51.332;9.458;2022-07-10T02:58:39;13.10;69.20
21676;DHT22;10999;51.332;9.458;2022-07-10T03:01:06;13.20;69.70
21676;DHT22;10999;51.332;9.458;2022-07-10T03:03:34;13.10;70.10
21676;DHT22;10999;51.332;9.458;2022-07-10T03:06:01;13.10;70.30
21676;DHT22;10999;51.332;9.458;2022-07-10T03:08:28;13.10;69.80
21676;DHT22;10999;51.332;9.458;2022-07-10T03:10:55;13.10;70.30
21676;DHT22;10999;51.332;9.458;2022-07-10T03:13:22;13.00;70.10
21676;DHT22;10999;51.332;9.458;2022-07-10T03:15:48;12.90;69.90
21676;DHT22;10999;51.332;9.458;2022-07-10T03:18:15;12.90;70.30
21676;DHT22;10999;51.332;9.458;2022-07-10T03:20:42;12.90;71.00
21676;DHT22;10999;51.332;9.458;2022-07-10T03:23:09;13.00;70.90
21676;DHT22;10999;51.332;9.458;2022-07-10T03:25:35;13.00;71.10
21676;DHT22;10999;51.332;9.458;2022-07-10T03:28:02;13.10;71.10
21676;DHT22;10999;51.332;9.458;2022-07-10T03:30:29;13.10;71.40
21676;DHT22;10999;51.332;9.458;2022-07-10T03:32:55;13.10;70.80
21676;DHT22;10999;51.332;9.458;2022-07-10T03:35:22;13.10;70.20
21676;DHT22;10999;51.332;9.458;2022-07-10T03:37:49;13.10;70.90
21676;DHT22;10999;51.332;9.458;2022-07-10T03:40:16;13.10;70.20
21676;DHT22;10999;51.332;9.458;2022-07-10T03:42:42;13.00;70.60
21676;DHT22;10999;51.332;9.458;2022-07-10T03:45:09;13.00;71.10
21676;DHT22;10999;51.332;9.458;2022-07-10T03:47:36;12.90;70.90
21676;DHT22;10999;51.332;9.458;2022-07-10T03:50:02;13.00;71.40
21676;DHT22;10999;51.332;9.458;2022-07-10T03:52:30;12.80;71.60
21676;DHT22;10999;51.332;9.458;2022-07-10T03:54:56;12.80;71.80
21676;DHT22;10999;51.332;9.458;2022-07-10T03:57:23;12.90;72.70
21676;DHT22;10999;51.332;9.458;2022-07-10T04:00:09;12.90;72.40
21676;DHT22;10999;51.332;9.458;2022-07-10T04:02:35;12.90;72.60
21676;DHT22;10999;51.332;9.458;2022-07-10T04:05:05;13.00;72.70
21676;DHT22;10999;51.332;9.458;2022-07-10T04:07:32;13.00;71.80
21676;DHT22;10999;51.332;9.458;2022-07-10T04:09:59;13.00;71.90
21676;DHT22;10999;51.332;9.458;2022-07-10T04:12:28;13.00;72.60
21676;DHT22;10999;51.332;9.458;2022-07-10T04:14:54;13.00;72.80
21676;DHT22;10999;51.332;9.458;2022-07-10T04:17:22;13.00;72.80
21676;DHT22;10999;51.332;9.458;2022-07-10T04:19:49;12.90;73.40
21676;DHT22;10999;51.332;9.458;2022-07-10T04:22:16;13.00;73.40
21676;DHT22;10999;51.332;9.458;2022-07-10T04:24:42;13.00;73.20
21676;DHT22;10999;51.332;9.458;2022-07-10T04:27:09;12.90;72.80
21676;DHT22;10999;51.332;9.458;2022-07-10T04:29:35;13.00;73.00
21676;DHT22;10999;51.332;9.458;2022-07-10T04:32:02;13.00;73.10
21676;DHT22;10999;51.332;9.458;2022-07-10T04:34:29;13.10;73.30
21676;DHT22;10999;51.332;9.458;2022-07-10T04:36:56;13.10;73.10
21676;DHT22;10999;51.332;9.458;2022-07-10T04:39:22;13.10;73.30
21676;DHT22;10999;51.332;9.458;2022-07-10T04:41:49;13.10;72.40
21676;DHT22;10999;51.332;9.458;2022-07-10T04:44:16;13.10;72.70
21676;DHT22;10999;51.332;9.458;2022-07-10T04:46:42;13.10;73.30
21676;DHT22;10999;51.332;9.458;2022-07-10T04:49:09;13.20;72.40
21676;DHT22;10999;51.332;9.458;2022-07-10T04:51:36;13.10;72.10
21676;DHT22;10999;51.332;9.458;2022-07-10T04:54:02;13.20;72.90
21676;DHT22;10999;51.332;9.458;2022-07-10T04:56:29;13.20;73.40
21676;DHT22;10999;51.332;9.458;2022-07-10T04:58:56;13.20;73.40
21676;DHT22;10999;51.332;9.458;2022-07-10T05:01:22;13.20;71.40
21676;DHT22;10999;51.332;9.458;2022-07-10T05:03:49;13.20;72.20
21676;DHT22;10999;51.332;9.458;2022-07-10T05:06:16;13.20;73.00
21676;DHT22;10999;51.332;9.458;2022-07-10T05:08:43;13.20;72.70
21676;DHT22;10999;51.332;9.458;2022-07-10T05:11:10;13.20;72.40
21676;DHT22;10999;51.332;9.458;2022-07-10T05:13:37;13.30;72.10
21676;DHT22;10999;51.332;9.458;2022-07-10T05:16:04;13.30;71.50
21676;DHT22;10999;51.332;9.458;2022-07-10T05:18:31;13.30;71.80
21676;DHT22;10999;51.332;9.458;2022-07-10T05:20:58;13.40;72.00
21676;DHT22;10999;51.332;9.458;2022-07-10T05:23:24;13.40;71.90
21676;DHT22;10999;51.332;9.458;2022-07-10T05:25:51;13.40;73.00
21676;DHT22;10999;51.332;9.458;2022-07-10T05:28:18;13.50;72.10
21676;DHT22;10999;51.332;9.458;2022-07-10T05:30:44;13.50;72.20
21676;DHT22;10999;51.332;9.458;2022-07-10T05:33:11;13.60;72.20
21676;DHT22;10999;51.332;9.458;2022-07-10T05:35:38;13.50;69.80
21676;DHT22;10999;51.332;9.458;2022-07-10T05:38:04;13.60;71.30
21676;DHT22;10999;51.332;9.458;2022-07-10T05:40:31;13.60;71.90
21676;DHT22;10999;51.332;9.458;2022-07-10T05:42:58;13.70;70.10
21676;DHT22;10999;51.332;9.458;2022-07-10T05:45:24;13.80;70.30
21676;DHT22;10999;51.332;9.458;2022-07-10T05:47:51;13.70;68.70
21676;DHT22;10999;51.332;9.458;2022-07-10T05:50:18;13.80;69.50
21676;DHT22;10999;51.332;9.458;2022-07-10T05:52:44;13.70;69.20
21676;DHT22;10999;51.332;9.458;2022-07-10T05:55:11;13.70;70.80
21676;DHT22;10999;51.332;9.458;2022-07-10T05:57:38;13.80;71.90
21676;DHT22;10999;51.332;9.458;2022-07-10T06:00:05;13.70;70.00
21676;DHT22;10999;51.332;9.458;2022-07-10T06:02:32;13.70;71.30
21676;DHT22;10999;51.332;9.458;2022-07-10T06:04:59;13.80;70.80
21676;DHT22;10999;51.332;9.458;2022-07-10T06:07:26;13.80;69.30
21676;DHT22;10999;51.332;9.458;2022-07-10T06:09:53;13.80;69.30
21676;DHT22;10999;51.332;9.458;2022-07-10T06:12:20;13.80;70.90
21676;DHT22;10999;51.332;9.458;2022-07-10T06:14:46;13.80;69.40
21676;DHT22;10999;51.332;9.458;2022-07-10T06:17:13;13.80;69.70
21676;DHT22;10999;51.332;9.458;2022-07-10T06:19:40;13.90;71.10
21676;DHT22;10999;51.332;9.458;2022-07-10T06:22:06;14.00;69.40
21676;DHT22;10999;51.332;9.458;2022-07-10T06:24:52;13.90;68.40
21676;DHT22;10999;51.332;9.458;2022-07-10T06:27:19;13.90;68.80
21676;DHT22;10999;51.332;9.458;2022-07-10T06:29:46;13.90;67.80
21676;DHT22;10999;51.332;9.458;2022-07-10T06:32:13;13.80;67.40
21676;DHT22;10999;51.332;9.458;2022-07-10T06:34:39;14.00;69.00
21676;DHT22;10999;51.332;9.458;2022-07-10T06:37:06;14.00;68.90
21676;DHT22;10999;51.332;9.458;2022-07-10T06:39:33;14.10;66.80
21676;DHT22;10999;51.332;9.458;2022-07-10T06:42:04;14.00;68.60
21676;DHT22;10999;51.332;9.458;2022-07-10T06:44:31;14.00;68.60
21676;DHT22;10999;51.332;9.458;2022-07-10T06:46:58;14.00;67.10
21676;DHT22;10999;51.332;9.458;2022-07-10T06:49:45;14.00;68.20
21676;DHT22;10999;51.332;9.458;2022-07-10T06:52:12;14.10;66.90
21676;DHT22;10999;51.332;9.458;2022-07-10T06:54:39;14.10;67.90
21676;DHT22;10999;51.332;9.458;2022-07-10T06:57:06;14.10;65.40
21676;DHT22;10999;51.332;9.458;2022-07-10T06:59:33;14.10;67.00
21676;DHT22;10999;51.332;9.458;2022-07-10T07:01:59;14.20;63.40
21676;DHT22;10999;51.332;9.458;2022-07-10T07:04:26;14.20;63.80
21676;DHT22;10999;51.332;9.458;2022-07-10T07:06:53;14.40;63.70
21676;DHT22;10999;51.332;9.458;2022-07-10T07:09:19;14.30;62.80
21676;DHT22;10999;51.332;9.458;2022-07-10T07:11:46;14.40;61.60
21676;DHT22;10999;51.332;9.458;2022-07-10T07:14:13;14.60;61.40
21676;DHT22;10999;51.332;9.458;2022-07-10T07:16:39;14.80;63.30
21676;DHT22;10999;51.332;9.458;2022-07-10T07:19:12;14.90;60.30
21676;DHT22;10999;51.332;9.458;2022-07-10T07:21:44;15.00;60.10
21676;DHT22;10999;51.332;9.458;2022-07-10T07:24:30;15.00;58.40
21676;DHT22;10999;51.332;9.458;2022-07-10T07:26:56;15.10;58.70
21676;DHT22;10999;51.332;9.458;2022-07-10T07:29:23;15.00;58.00
21676;DHT22;10999;51.332;9.458;2022-07-10T07:31:50;15.00;56.90
21676;DHT22;10999;51.332;9.458;2022-07-10T07:34:17;14.90;59.10
21676;DHT22;10999;51.332;9.458;2022-07-10T07:36:44;14.90;58.10
21676;DHT22;10999;51.332;9.458;2022-07-10T07:39:10;14.90;58.60
21676;DHT22;10999;51.332;9.458;2022-07-10T07:41:37;15.00;60.80
21676;DHT22;10999;51.332;9.458;2022-07-10T07:44:04;15.10;61.50
21676;DHT22;10999;51.332;9.458;2022-07-10T07:46:30;15.10;58.90
21676;DHT22;10999;51.332;9.458;2022-07-10T07:48:57;15.10;58.90
21676;DHT22;10999;51.332;9.458;2022-07-10T07:51:24;15.10;59.40
21676;DHT22;10999;51.332;9.458;2022-07-10T07:53:51;15.10;59.40
21676;DHT22;10999;51.332;9.458;2022-07-10T07:56:17;15.00;57.00
21676;DHT22;10999;51.332;9.458;2022-07-10T07:58:44;15.00;57.70
21676;DHT22;10999;51.332;9.458;2022-07-10T08:01:11;15.00;57.70
21676;DHT22;10999;51.332;9.458;2022-07-10T08:03:38;14.90;57.40
21676;DHT22;10999;51.332;9.458;2022-07-10T08:06:25;14.90;57.40
21676;DHT22;10999;51.332;9.458;2022-07-10T08:08:52;14.90;58.40
21676;DHT22;10999;51.332;9.458;2022-07-10T08:11:19;15.00;56.90
21676;DHT22;10999;51.332;9.458;2022-07-10T08:13:46;15.00;59.40
21676;DHT22;10999;51.332;9.458;2022-07-10T08:16:12;15.30;59.20
21676;DHT22;10999;51.332;9.458;2022-07-10T08:18:39;15.40;59.00
21676;DHT22;10999;51.332;9.458;2022-07-10T08:21:07;15.70;58.10
21676;DHT22;10999;51.332;9.458;2022-07-10T08:23:33;15.70;48.60
21676;DHT22;10999;51.332;9.458;2022-07-10T08:26:00;15.70;50.70
21676;DHT22;10999;51.332;9.458;2022-07-10T08:28:27;15.80;52.40
21676;DHT22;10999;51.332;9.458;2022-07-10T08:30:54;15.90;51.00
21676;DHT22;10999;51.332;9.458;2022-07-10T08:33:21;16.00;50.60
21676;DHT22;10999;51.332;9.458;2022-07-10T08:35:47;16.00;47.50
21676;DHT22;10999;51.332;9.458;2022-07-10T08:38:14;15.90;46.80
21676;DHT22;10999;51.332;9.458;2022-07-10T08:40:41;15.80;47.30
21676;DHT22;10999;51.332;9.458;2022-07-10T08:43:08;15.70;49.40
21676;DHT22;10999;51.332;9.458;2022-07-10T08:45:35;15.60;49.70
21676;DHT22;10999;51.332;9.458;2022-07-10T08:48:02;15.50;49.20
21676;DHT22;10999;51.332;9.458;2022-07-10T08:50:33;15.40;51.70
21676;DHT22;10999;51.332;9.458;2022-07-10T08:53:02;15.40;52.10
21676;DHT22;10999;51.332;9.458;2022-07-10T08:55:31;15.40;54.20
21676;DHT22;10999;51.332;9.458;2022-07-10T08:57:58;15.40;56.00
21676;DHT22;10999;51.332;9.458;2022-07-10T09:00:25;15.60;54.40
21676;DHT22;10999;51.332;9.458;2022-07-10T09:02:53;15.80;51.30
21676;DHT22;10999;51.332;9.458;2022-07-10T09:05:22;15.80;52.10
21676;DHT22;10999;51.332;9.458;2022-07-10T09:07:48;15.80;50.40
21676;DHT22;10999;51.332;9.458;2022-07-10T09:10:15;15.80;49.70
21676;DHT22;10999;51.332;9.458;2022-07-10T09:12:52;16.20;51.30
21676;DHT22;10999;51.332;9.458;2022-07-10T09:15:19;16.40;49.70
21676;DHT22;10999;51.332;9.458;2022-07-10T09:17:51;16.50;50.00
21676;DHT22;10999;51.332;9.458;2022-07-10T09:20:25;16.70;47.10
21676;DHT22;10999;51.332;9.458;2022-07-10T09:22:52;16.70;46.40
21676;DHT22;10999;51.332;9.458;2022-07-10T09:25:18;16.70;45.90
21676;DHT22;10999;51.332;9.458;2022-07-10T09:27:51;16.80;43.40
21676;DHT22;10999;51.332;9.458;2022-07-10T09:30:32;16.50;42.10
21676;DHT22;10999;51.332;9.458;2022-07-10T09:35:55;16.30;43.50
21676;DHT22;10999;51.332;9.458;2022-07-10T09:43:48;16.40;46.00
21676;DHT22;10999;51.332;9.458;2022-07-10T09:46:18;16.30;48.40
21676;DHT22;10999;51.332;9.458;2022-07-10T09:48:45;16.30;47.80
21676;DHT22;10999;51.332;9.458;2022-07-10T09:51:12;16.20;48.00
21676;DHT22;10999;51.332;9.458;2022-07-10T09:53:40;16.10;47.50
21676;DHT22;10999;51.332;9.458;2022-07-10T09:56:08;16.10;48.00
21676;DHT22;10999;51.332;9.458;2022-07-10T09:58:36;16.20;49.60
21676;DHT22;10999;51.332;9.458;2022-07-10T10:01:04;16.30;48.50
21676;DHT22;10999;51.332;9.458;2022-07-10T10:03:34;16.50;47.40
21676;DHT22;10999;51.332;9.458;2022-07-10T10:06:09;16.60;46.80
21676;DHT22;10999;51.332;9.458;2022-07-10T10:08:44;16.70;46.40
21676;DHT22;10999;51.332;9.458;2022-07-10T10:11:14;16.80;46.40
21676;DHT22;10999;51.332;9.458;2022-07-10T10:13:42;17.00;46.10
21676;DHT22;10999;51.332;9.458;2022-07-10T10:16:09;17.20;49.50
21676;DHT22;10999;51.332;9.458;2022-07-10T10:18:36;17.30;45.00
21676;DHT22;10999;51.332;9.458;2022-07-10T10:21:04;17.10;43.30
21676;DHT22;10999;51.332;9.458;2022-07-10T10:23:33;17.00;44.80
21676;DHT22;10999;51.332;9.458;2022-07-10T10:26:00;16.90;46.50
21676;DHT22;10999;51.332;9.458;2022-07-10T10:28:27;16.70;46.50
21676;DHT22;10999;51.332;9.458;2022-07-10T10:30:55;16.60;47.80
21676;DHT22;10999;51.332;9.458;2022-07-10T10:36:03;16.60;49.30
21676;DHT22;10999;51.332;9.458;2022-07-10T10:41:23;16.70;48.30
21676;DHT22;10999;51.332;9.458;2022-07-10T10:46:54;16.60;48.30
21676;DHT22;10999;51.332;9.458;2022-07-10T10:49:47;16.70;48.90
21676;DHT22;10999;51.332;9.458;2022-07-10T10:52:14;16.70;48.60
21676;DHT22;10999;51.332;9.458;2022-07-10T11:00:06;17.10;46.30
21676;DHT22;10999;51.332;9.458;2022-07-10T11:02:34;17.40;49.80
21676;DHT22;10999;51.332;9.458;2022-07-10T11:07:56;17.70;43.00
21676;DHT22;10999;51.332;9.458;2022-07-10T11:10:28;17.90;41.10
21676;DHT22;10999;51.332;9.458;2022-07-10T11:12:58;18.10;41.80
21676;DHT22;10999;51.332;9.458;2022-07-10T11:15:26;18.20;37.10
21676;DHT22;10999;51.332;9.458;2022-07-10T11:17:53;18.40;36.60
21676;DHT22;10999;51.332;9.458;2022-07-10T11:20:20;18.30;36.80
21676;DHT22;10999;51.332;9.458;2022-07-10T11:22:49;18.30;37.50
21676;DHT22;10999;51.332;9.458;2022-07-10T11:27:26;17.90;37.70
21676;DHT22;10999;51.332;9.458;2022-07-10T11:30:01;17.80;37.30
21676;DHT22;10999;51.332;9.458;2022-07-10T11:32:28;17.60;38.90
21676;DHT22;10999;51.332;9.458;2022-07-10T11:34:55;17.60;37.30
21676;DHT22;10999;51.332;9.458;2022-07-10T11:37:22;17.70;39.70
21676;DHT22;10999;51.332;9.458;2022-07-10T11:40:08;17.90;36.20
21676;DHT22;10999;51.332;9.458;2022-07-10T11:42:55;18.20;38.80
21676;DHT22;10999;51.332;9.458;2022-07-10T11:47:53;19.00;35.90
21676;DHT22;10999;51.332;9.458;2022-07-10T11:50:20;19.30;32.70
21676;DHT22;10999;51.332;9.458;2022-07-10T11:52:47;19.40;29.70
21676;DHT22;10999;51.332;9.458;2022-07-10T11:55:19;19.40;31.60
21676;DHT22;10999;51.332;9.458;2022-07-10T11:57:46;19.50;31.90
21676;DHT22;10999;51.332;9.458;2022-07-10T12:00:27;19.50;29.00
21676;DHT22;10999;51.332;9.458;2022-07-10T12:02:56;19.40;30.80
21676;DHT22;10999;51.332;9.458;2022-07-10T12:05:36;19.40;32.00
21676;DHT22;10999;51.332;9.458;2022-07-10T12:08:04;19.40;30.00
21676;DHT22;10999;51.332;9.458;2022-07-10T12:10:33;19.40;29.80
21676;DHT22;10999;51.332;9.458;2022-07-10T12:15:36;19.10;30.30
21676;DHT22;10999;51.332;9.458;2022-07-10T12:18:08;18.80;30.40
21676;DHT22;10999;51.332;9.458;2022-07-10T12:20:37;18.50;32.50
21676;DHT22;10999;51.332;9.458;2022-07-10T12:23:04;18.50;32.40
21676;DHT22;10999;51.332;9.458;2022-07-10T12:25:32;18.50;33.20
21676;DHT22;10999;51.332;9.458;2022-07-10T12:27:59;18.40;32.60
21676;DHT22;10999;51.332;9.458;2022-07-10T12:30:38;18.20;33.80
21676;DHT22;10999;51.332;9.458;2022-07-10T12:33:09;18.10;35.30
21676;DHT22;10999;51.332;9.458;2022-07-10T12:35:57;18.10;36.00
21676;DHT22;10999;51.332;9.458;2022-07-10T12:38:29;18.10;34.10
21676;DHT22;10999;51.332;9.458;2022-07-10T12:41:13;18.00;34.20
21676;DHT22;10999;51.332;9.458;2022-07-10T12:43:41;18.00;35.90
21676;DHT22;10999;51.332;9.458;2022-07-10T12:46:15;18.00;35.70
21676;DHT22;10999;51.332;9.458;2022-07-10T12:48:59;18.00;36.60
21676;DHT22;10999;51.332;9.458;2022-07-10T12:51:28;18.00;37.40
21676;DHT22;10999;51.332;9.458;2022-07-10T12:54:38;18.00;36.50
21676;DHT22;10999;51.332;9.458;2022-07-10T12:57:05;18.10;37.80
21676;DHT22;10999;51.332;9.458;2022-07-10T12:59:34;18.40;40.80
21676;DHT22;10999;51.332;9.458;2022-07-10T13:02:17;18.60;39.60
21676;DHT22;10999;51.332;9.458;2022-07-10T13:04:54;18.80;37.50
21676;DHT22;10999;51.332;9.458;2022-07-10T13:07:34;18.90;38.50
21676;DHT22;10999;51.332;9.458;2022-07-10T13:10:04;18.70;37.40
21676;DHT22;10999;51.332;9.458;2022-07-10T13:12:34;18.40;37.40
21676;DHT22;10999;51.332;9.458;2022-07-10T13:15:02;18.20;37.70
21676;DHT22;10999;51.332;9.458;2022-07-10T13:17:29;18.10;40.50
21676;DHT22;10999;51.332;9.458;2022-07-10T13:19:56;18.00;41.30
21676;DHT22;10999;51.332;9.458;2022-07-10T13:22:23;17.90;41.30
21676;DHT22;10999;51.332;9.458;2022-07-10T13:24:50;18.00;43.40
21676;DHT22;10999;51.332;9.458;2022-07-10T13:27:20;18.10;41.90
21676;DHT22;10999;51.332;9.458;2022-07-10T13:29:47;18.10;41.00
21676;DHT22;10999;51.332;9.458;2022-07-10T13:32:20;18.00;43.00
21676;DHT22;10999;51.332;9.458;2022-07-10T13:34:55;17.90;43.30
21676;DHT22;10999;51.332;9.458;2022-07-10T13:37:22;17.80;42.90
21676;DHT22;10999;51.332;9.458;2022-07-10T13:39:49;17.70;44.40
21676;DHT22;10999;51.332;9.458;2022-07-10T13:42:15;17.40;45.50
21676;DHT22;10999;51.332;9.458;2022-07-10T13:44:42;17.30;47.90
21676;DHT22;10999;51.332;9.458;2022-07-10T13:47:09;17.30;48.30
21676;DHT22;10999;51.332;9.458;2022-07-10T13:49:37;17.30;50.40
21676;DHT22;10999;51.332;9.458;2022-07-10T13:52:03;17.30;49.10
21676;DHT22;10999;51.332;9.458;2022-07-10T13:54:30;17.30;49.50
21676;DHT22;10999;51.332;9.458;2022-07-10T13:56:58;17.30;50.10
21676;DHT22;10999;51.332;9.458;2022-07-10T13:59:24;17.30;50.10
21676;DHT22;10999;51.332;9.458;2022-07-10T14:01:52;17.40;51.30
21676;DHT22;10999;51.332;9.458;2022-07-10T14:04:19;17.20;51.70
21676;DHT22;10999;51.332;9.458;2022-07-10T14:06:46;17.20;52.30
21676;DHT22;10999;51.332;9.458;2022-07-10T14:09:12;17.20;53.20
21676;DHT22;10999;51.332;9.458;2022-07-10T14:11:40;17.10;53.30
21676;DHT22;10999;51.332;9.458;2022-07-10T14:14:09;17.10;55.60
21676;DHT22;10999;51.332;9.458;2022-07-10T14:16:37;17.20;55.80
21676;DHT22;10999;51.332;9.458;2022-07-10T14:19:04;17.20;54.00
21676;DHT22;10999;51.332;9.458;2022-07-10T14:21:37;17.20;54.50
21676;DHT22;10999;51.332;9.458;2022-07-10T14:24:05;17.20;54.60
21676;DHT22;10999;51.332;9.458;2022-07-10T14:26:33;17.30;56.70
21676;DHT22;10999;51.332;9.458;2022-07-10T14:29:05;17.40;55.60
21676;DHT22;10999;51.332;9.458;2022-07-10T14:31:33;17.30;57.10
21676;DHT22;10999;51.332;9.458;2022-07-10T14:34:00;17.30;60.00
21676;DHT22;10999;51.332;9.458;2022-07-10T14:36:27;17.30;63.30
21676;DHT22;10999;51.332;9.458;2022-07-10T14:38:54;17.20;63.90
21676;DHT22;10999;51.332;9.458;2022-07-10T14:41:22;17.20;63.10
21676;DHT22;10999;51.332;9.458;2022-07-10T14:43:49;17.40;63.50
21676;DHT22;10999;51.332;9.458;2022-07-10T14:46:16;17.70;60.50
21676;DHT22;10999;51.332;9.458;2022-07-10T14:48:42;17.60;58.20
21676;DHT22;10999;51.332;9.458;2022-07-10T14:51:10;17.70;58.40
21676;DHT22;10999;51.332;9.458;2022-07-10T14:53:36;17.80;59.60
21676;DHT22;10999;51.332;9.458;2022-07-10T14:56:05;17.70;58.00
21676;DHT22;10999;51.332;9.458;2022-07-10T14:58:32;17.70;58.40
21676;DHT22;10999;51.332;9.458;2022-07-10T15:01:19;17.60;59.70
21676;DHT22;10999;51.332;9.458;2022-07-10T15:03:46;17.60;59.30
21676;DHT22;10999;51.332;9.458;2022-07-10T15:06:13;17.60;60.50
21676;DHT22;10999;51.332;9.458;2022-07-10T15:08:39;17.70;60.70
21676;DHT22;10999;51.332;9.458;2022-07-10T15:11:06;17.60;59.90
21676;DHT22;10999;51.332;9.458;2022-07-10T15:13:33;17.60;60.90
21676;DHT22;10999;51.332;9.458;2022-07-10T15:16:00;17.50;62.50
21676;DHT22;10999;51.332;9.458;2022-07-10T15:18:27;17.50;63.40
21676;DHT22;10999;51.332;9.458;2022-07-10T15:20:54;17.50;62.80
21676;DHT22;10999;51.332;9.458;2022-07-10T15:23:25;17.60;63.80
21676;DHT22;10999;51.332;9.458;2022-07-10T15:25:54;17.50;61.00
21676;DHT22;10999;51.332;9.458;2022-07-10T15:28:24;17.40;62.60
21676;DHT22;10999;51.332;9.458;2022-07-10T15:30:51;17.30;64.30
21676;DHT22;10999;51.332;9.458;2022-07-10T15:33:18;17.40;65.20
21676;DHT22;10999;51.332;9.458;2022-07-10T15:35:45;17.40;64.40
21676;DHT22;10999;51.332;9.458;2022-07-10T15:38:12;17.30;66.20
21676;DHT22;10999;51.332;9.458;2022-07-10T15:40:40;17.30;65.50
21676;DHT22;10999;51.332;9.458;2022-07-10T15:43:06;17.30;65.10
21676;DHT22;10999;51.332;9.458;2022-07-10T15:45:34;17.40;66.30
21676;DHT22;10999;51.332;9.458;2022-07-10T15:48:01;17.30;64.70
21676;DHT22;10999;51.332;9.458;2022-07-10T15:50:27;17.30;65.80
21676;DHT22;10999;51.332;9.458;2022-07-10T15:53:00;17.30;66.70
21676;DHT22;10999;51.332;9.458;2022-07-10T15:55:26;17.30;65.80
21676;DHT22;10999;51.332;9.458;2022-07-10T15:57:53;17.30;67.20
21676;DHT22;10999;51.332;9.458;2022-07-10T16:00:20;17.30;65.80
21676;DHT22;10999;51.332;9.458;2022-07-10T16:02:47;17.30;66.40
21676;DHT22;10999;51.332;9.458;2022-07-10T16:05:19;17.30;66.20
21676;DHT22;10999;51.332;9.458;2022-07-10T16:07:46;17.20;67.40
21676;DHT22;10999;51.332;9.458;2022-07-10T16:10:12;17.10;68.60